Time;durP1;ratioP1;P1;durP2;ratioP2;P2;SDS_P1;SDS_P2;PMS_P1;PMS_P2;Temp;Humidity;BMP_temperature;BMP_pressure;BME280_temperature;BME280_humidity;BME280_pressure;Samples;Min_cycle;Max_cycle;Signal;HPM_P1;HPM_P2
2021/01/01 00:01:55;;;;;;;18.55;10.10;;;;;;;1.53;92.06;97843.00;5033202;28;20053;-79
2021/01/01 00:04:22;;;;;;;15.77;8.90;;;;;;;1.52;92.39;97843.97;5032611;28;20383;-79
2021/01/01 00:06:50;;;;;;;19.60;9.75;;;;;;;1.41;92.09;97826.34;5033376;28;20052;-79
2021/01/01 00:09:18;;;;;;;15.98;9.65;;;;;;;1.56;91.68;97850.69;5032827;28;20084;-79
2021/01/01 00:11:48;;;;;;;23.00;9.40;;;;;;;1.30;91.87;97818.63;5033104;28;20099;-79
2021/01/01 00:14:14;;;;;;;;;;;;;;;1.55;91.78;97854.38;5033140;28;20049;-79
2021/01/01 00:16:40;;;;;;;13.98;8.40;;;;;;;1.38;91.91;97835.53;5033009;28;19921;-79
2021/01/01 00:19:07;;;;;;;17.25;9.57;;;;;;;1.35;91.70;97825.16;5032925;28;20053;-79
2021/01/01 00:21:34;;;;;;;18.02;9.35;;;;;;;1.45;91.97;97835.75;5032576;28;20084;-79
2021/01/01 00:24:00;;;;;;;19.42;10.90;;;;;;;1.44;92.21;97841.28;5032773;28;20049;-79
2021/01/01 00:26:28;;;;;;;22.17;11.45;;;;;;;1.31;92.53;97802.38;5032657;28;20042;-79
2021/01/01 00:28:54;;;;;;;24.92;12.38;;;;;;;1.38;92.20;97829.34;5032532;28;20050;-79
2021/01/01 00:31:22;;;;;;;26.85;12.85;;;;;;;1.40;92.52;97836.25;5032543;28;20045;-79
2021/01/01 00:33:50;;;;;;;24.67;12.20;;;;;;;1.30;92.31;97824.78;5032309;28;20099;-79
2021/01/01 00:36:17;;;;;;;24.75;12.93;;;;;;;1.35;92.39;97835.84;5032632;28;20639;-79
2021/01/01 00:38:50;;;;;;;22.60;13.52;;;;;;;1.46;92.49;97840.13;5032638;28;20115;-79
2021/01/01 00:41:24;;;;;;;28.48;13.77;;;;;;;1.41;92.08;97837.91;5033053;28;20081;-79
2021/01/01 00:43:52;;;;;;;24.90;13.45;;;;;;;1.46;92.32;97844.63;5032695;28;20054;-79
2021/01/01 00:46:18;;;;;;;23.05;13.27;;;;;;;1.31;92.83;97822.94;5031444;28;20088;-78
2021/01/01 00:48:45;;;;;;;31.77;15.63;;;;;;;1.50;92.60;97843.31;5032218;28;20068;-79
2021/01/01 00:51:11;;;;;;;29.17;14.95;;;;;;;1.45;91.73;97824.22;5032868;28;20049;-79
2021/01/01 00:53:37;;;;;;;27.80;13.57;;;;;;;1.42;91.85;97842.25;5032700;28;20513;-79
2021/01/01 00:56:04;;;;;;;33.17;14.15;;;;;;;1.57;92.21;97861.25;5032065;28;20054;-79
2021/01/01 00:58:30;;;;;;;33.30;15.95;;;;;;;1.73;91.01;97860.50;5032653;28;20050;-79
2021/01/01 01:00:57;;;;;;;34.45;14.88;;;;;;;1.73;90.72;97846.25;5022483;28;20104;-79
2021/01/01 01:03:23;;;;;;;27.40;14.75;;;;;;;1.71;90.86;97859.81;5023054;28;20045;-79
2021/01/01 01:05:50;;;;;;;23.92;13.10;;;;;;;1.59;91.13;97853.06;5032386;28;20046;-79
2021/01/01 01:08:16;;;;;;;32.92;14.70;;;;;;;1.58;91.49;97862.09;5036536;28;20052;-79
2021/01/01 01:10:44;;;;;;;24.25;13.00;;;;;;;1.66;92.15;97858.63;5036146;28;20482;-79
2021/01/01 01:13:10;;;;;;;29.00;13.05;;;;;;;1.61;92.22;97875.16;5036373;28;20056;-79
2021/01/01 01:15:37;;;;;;;28.23;11.80;;;;;;;1.42;92.32;97849.47;5036294;28;20061;-79
2021/01/01 01:18:04;;;;;;;25.50;11.95;;;;;;;1.38;92.59;97848.09;5036170;28;20045;-79
2021/01/01 01:20:30;;;;;;;22.95;13.25;;;;;;;1.45;92.70;97867.06;5036369;28;20053;-79
2021/01/01 01:22:59;;;;;;;25.08;12.57;;;;;;;1.38;92.22;97873.03;5035239;28;20486;-80
2021/01/01 01:25:28;;;;;;;27.65;13.45;;;;;;;1.53;92.59;97891.22;5024454;28;20050;-79
2021/01/01 01:27:55;;;;;;;33.40;15.70;;;;;;;1.48;92.43;97878.28;5031867;28;20057;-79
2021/01/01 01:30:22;;;;;;;33.88;17.10;;;;;;;1.58;92.33;97880.84;5027402;28;20038;-79
2021/01/01 01:32:48;;;;;;;30.58;16.73;;;;;;;1.55;91.95;97881.16;5032189;28;20121;-79
2021/01/01 01:35:15;;;;;;;28.70;16.48;;;;;;;1.58;92.30;97896.91;5021297;28;20042;-78
2021/01/01 01:37:42;;;;;;;29.58;15.13;;;;;;;1.57;92.35;97901.44;5020367;28;20049;-79
2021/01/01 01:40:09;;;;;;;32.05;16.08;;;;;;;1.31;92.40;97858.63;5046070;28;20049;-79
2021/01/01 01:42:35;;;;;;;29.77;15.90;;;;;;;1.47;92.52;97881.13;5035222;28;20073;-79
2021/01/01 01:45:01;;;;;;;29.17;16.58;;;;;;;1.49;92.45;97885.34;5034748;28;20103;-79
2021/01/01 01:47:28;;;;;;;29.70;16.35;;;;;;;1.63;92.37;97904.50;5035034;28;20060;-80
2021/01/01 01:49:54;;;;;;;35.17;17.08;;;;;;;1.65;92.58;97899.81;5034874;28;20058;-79
2021/01/01 01:52:21;;;;;;;27.20;15.88;;;;;;;1.56;92.97;97897.06;5035499;28;20053;-79
2021/01/01 01:54:49;;;;;;;34.50;17.10;;;;;;;1.51;93.06;97899.41;5035235;28;20050;-79
2021/01/01 01:57:15;;;;;;;28.05;16.02;;;;;;;1.56;92.63;97889.03;5034990;28;20053;-79
2021/01/01 01:59:45;;;;;;;30.95;16.55;;;;;;;1.52;92.63;97884.16;5035144;28;20056;-79
2021/01/01 02:02:11;;;;;;;35.92;17.80;;;;;;;1.58;92.80;97896.91;5015155;28;20510;-79
2021/01/01 02:04:38;;;;;;;31.10;16.92;;;;;;;1.44;93.19;97882.28;5015044;28;20050;-79
2021/01/01 02:07:04;;;;;;;29.70;15.18;;;;;;;1.55;93.17;97897.22;5019647;28;20060;-80
2021/01/01 02:09:31;;;;;;;29.67;14.80;;;;;;;1.55;92.43;97908.81;5035139;28;20049;-79
2021/01/01 02:11:58;;;;;;;28.80;15.88;;;;;;;1.41;92.88;97886.09;5030162;28;20057;-79
2021/01/01 02:14:24;;;;;;;27.95;15.57;;;;;;;1.48;92.59;97909.59;5015432;28;20054;-79
2021/01/01 02:16:51;;;;;;;30.88;16.45;;;;;;;1.42;92.30;97914.56;5035044;28;20045;-78
2021/01/01 02:19:17;;;;;;;29.35;16.35;;;;;;;1.62;92.25;97919.72;5035338;28;20054;-79
2021/01/01 02:21:45;;;;;;;30.65;16.00;;;;;;;1.66;91.58;97920.25;5035364;28;20053;-79
2021/01/01 02:24:12;;;;;;;27.90;15.40;;;;;;;1.54;91.64;97908.97;5034427;28;20059;-79
2021/01/01 02:26:39;;;;;;;26.98;14.68;;;;;;;1.56;91.58;97923.88;5037819;28;20049;-80
2021/01/01 02:29:05;;;;;;;25.50;14.85;;;;;;;1.54;92.04;97933.06;5035186;28;20482;-79
2021/01/01 02:31:32;;;;;;;30.42;14.82;;;;;;;1.50;92.47;97929.84;5034890;28;20042;-79
2021/01/01 02:33:58;;;;;;;25.38;14.52;;;;;;;1.46;92.77;97928.50;5034122;28;20068;-79
2021/01/01 02:36:25;;;;;;;25.52;14.30;;;;;;;1.46;92.66;97933.00;5034674;28;20050;-79
2021/01/01 02:38:53;;;;;;;26.95;14.70;;;;;;;1.52;92.46;97929.69;5034393;28;20632;-79
2021/01/01 02:41:20;;;;;;;27.50;14.57;;;;;;;1.39;92.58;97908.69;5035087;28;20107;-79
2021/01/01 02:43:47;;;;;;;24.75;13.95;;;;;;;1.53;92.52;97934.06;5042853;28;20056;-79
2021/01/01 02:46:13;;;;;;;25.25;14.45;;;;;;;1.46;92.70;97920.47;5053662;28;20460;-79
2021/01/01 02:48:39;;;;;;;25.08;14.30;;;;;;;1.34;91.89;97894.94;5047913;28;20095;-79
2021/01/01 02:51:06;;;;;;;22.35;12.80;;;;;;;1.46;92.70;97931.19;5034785;28;20064;-79
2021/01/01 02:53:32;;;;;;;25.35;14.23;;;;;;;1.40;92.45;97923.75;5034384;28;20128;-79
2021/01/01 02:55:58;;;;;;;25.55;14.00;;;;;;;1.50;92.02;97942.41;5034247;28;20103;-79
2021/01/01 02:58:25;;;;;;;29.58;15.82;;;;;;;1.41;92.09;97931.63;5034468;28;20057;-79
2021/01/01 03:00:52;;;;;;;24.75;13.30;;;;;;;1.50;92.13;97939.75;5033856;28;20049;-79
2021/01/01 03:03:18;;;;;;;24.10;13.05;;;;;;;1.49;91.88;97943.41;5033593;28;20456;-79
2021/01/01 03:05:45;;;;;;;26.25;12.57;;;;;;;1.49;92.83;97938.91;5033949;28;20048;-79
2021/01/01 03:08:11;;;;;;;26.83;12.95;;;;;;;1.50;92.40;97947.78;5021550;28;20053;-79
2021/01/01 03:10:49;;;;;;;27.77;13.55;;;;;;;1.47;92.41;97945.41;5014313;28;20506;-79
2021/01/01 03:13:15;;;;;;;24.20;12.68;;;;;;;1.30;92.32;97921.19;5014931;28;20053;-79
2021/01/01 03:15:42;;;;;;;21.75;12.75;;;;;;;1.40;92.38;97931.78;5031590;28;20500;-79
2021/01/01 03:18:09;;;;;;;25.88;14.57;;;;;;;1.55;91.78;97951.66;5017328;28;20052;-79
2021/01/01 03:20:35;;;;;;;28.77;13.48;;;;;;;1.51;91.57;97941.44;5017939;28;20045;-80
2021/01/01 03:23:01;;;;;;;27.42;14.32;;;;;;;1.44;91.40;97935.84;5033750;28;20053;-79
2021/01/01 03:25:30;;;;;;;23.88;14.43;;;;;;;1.38;92.19;97918.56;5033199;28;20056;-79
2021/01/01 03:27:56;;;;;;;27.10;13.32;;;;;;;1.35;92.05;97934.09;5034052;28;20045;-79
2021/01/01 03:30:25;;;;;;;26.50;13.75;;;;;;;1.50;92.24;97942.41;5034025;28;20052;-79
2021/01/01 03:32:52;;;;;;;24.55;13.15;;;;;;;1.40;91.82;97929.97;5033459;28;20060;-79
2021/01/01 03:35:18;;;;;;;23.35;12.75;;;;;;;1.41;92.50;97928.94;5013329;28;20054;-79
2021/01/01 03:37:47;;;;;;;27.30;14.30;;;;;;;1.38;92.58;97947.19;5023086;28;20056;-79
2021/01/01 03:40:17;;;;;;;25.92;14.00;;;;;;;1.27;92.44;97926.84;5014087;28;20571;-79
2021/01/01 03:42:43;;;;;;;24.63;12.88;;;;;;;1.34;92.25;97930.59;5017750;28;20049;-79
2021/01/01 03:45:13;;;;;;;23.95;13.95;;;;;;;1.37;92.50;97954.38;5023622;28;20045;-79
2021/01/01 03:47:39;;;;;;;30.40;14.23;;;;;;;1.47;92.07;97954.28;5013786;28;20045;-79
2021/01/01 03:50:08;;;;;;;25.45;14.25;;;;;;;1.49;91.55;97951.44;5020936;28;20153;-79
2021/01/01 03:52:35;;;;;;;25.07;13.37;;;;;;;1.53;91.59;97950.13;5045313;28;20049;-79
2021/01/01 03:55:05;;;;;;;24.08;12.63;;;;;;;1.49;91.36;97946.06;5043423;28;20300;-79
2021/01/01 03:57:31;;;;;;;24.95;12.88;;;;;;;1.37;91.39;97924.06;5013849;28;20478;-79
2021/01/01 03:59:58;;;;;;;25.27;14.63;;;;;;;1.55;91.13;97946.31;5030481;28;20555;-79
2021/01/01 04:02:24;;;;;;;30.25;14.77;;;;;;;1.42;91.46;97936.00;5033520;28;20061;-79
2021/01/01 04:04:51;;;;;;;25.48;13.80;;;;;;;1.44;91.86;97957.28;5033332;28;20053;-79
2021/01/01 04:07:18;;;;;;;25.88;14.93;;;;;;;1.26;92.21;97927.03;5030027;28;20104;-79
2021/01/01 04:09:44;;;;;;;24.90;13.50;;;;;;;1.35;91.93;97945.66;5013918;28;20104;-79
2021/01/01 04:12:10;;;;;;;29.02;13.93;;;;;;;1.48;91.88;97955.97;5013720;28;20046;-80
2021/01/01 04:14:37;;;;;;;25.15;13.55;;;;;;;1.44;91.90;97957.28;5013608;28;20060;-79
2021/01/01 04:17:03;;;;;;;24.67;14.73;;;;;;;1.45;91.58;97947.41;5028390;28;20053;-79
2021/01/01 04:19:29;;;;;;;25.92;12.82;;;;;;;1.43;91.79;97942.22;5033270;28;20049;-79
2021/01/01 04:21:55;;;;;;;28.17;13.60;;;;;;;1.52;91.80;97954.66;5013835;28;20387;-79
2021/01/01 04:24:23;;;;;;;28.20;14.50;;;;;;;1.37;92.11;97948.16;5031274;28;20073;-79
2021/01/01 04:26:49;;;;;;;24.85;13.20;;;;;;;1.42;92.05;97949.38;5033111;28;20061;-79
2021/01/01 04:29:16;;;;;;;22.27;12.63;;;;;;;1.18;92.81;97933.97;5033299;28;20053;-79
2021/01/01 04:31:42;;;;;;;26.40;13.27;;;;;;;1.25;92.05;97936.91;5033531;28;20072;-79
2021/01/01 04:34:09;;;;;;;23.55;12.80;;;;;;;1.21;92.36;97924.81;5032886;28;20115;-79
2021/01/01 04:36:36;;;;;;;23.08;13.57;;;;;;;1.47;91.80;97954.28;5038459;28;20054;-79
2021/01/01 04:39:03;;;;;;;24.00;12.20;;;;;;;1.41;91.08;97930.81;5036429;28;20046;-79
2021/01/01 04:41:31;;;;;;;30.52;14.05;;;;;;;1.60;90.92;97967.25;5019763;28;20564;-79
2021/01/01 04:43:58;;;;;;;23.90;13.73;;;;;;;1.61;91.01;97962.75;5019755;28;20108;-79
2021/01/01 04:46:25;;;;;;;23.58;12.98;;;;;;;1.52;90.94;97960.03;5019620;28;20072;-79
2021/01/01 04:48:52;;;;;;;30.33;14.40;;;;;;;1.40;90.84;97947.84;5030016;28;20046;-79
2021/01/01 04:51:18;;;;;;;24.85;13.02;;;;;;;1.42;90.97;97940.53;5039388;28;20061;-78
2021/01/01 04:53:48;;;;;;;26.17;13.05;;;;;;;1.28;91.95;97938.41;5039199;28;20041;-79
2021/01/01 04:56:14;;;;;;;26.23;13.15;;;;;;;1.36;92.14;97957.22;5039231;28;20478;-79
2021/01/01 04:58:42;;;;;;;29.02;12.50;;;;;;;1.37;92.32;97969.59;5038641;28;20053;-79
2021/01/01 05:01:09;;;;;;;33.30;12.57;;;;;;;1.30;92.15;97973.91;5038564;28;20060;-79
2021/01/01 05:03:35;;;;;;;25.88;11.73;;;;;;;1.17;92.13;97944.84;5032622;28;20049;-79
2021/01/01 05:06:02;;;;;;;20.95;11.10;;;;;;;1.27;92.62;97953.63;5019031;28;20501;-79
2021/01/01 05:08:28;;;;;;;24.58;11.88;;;;;;;1.54;91.28;97971.41;5018845;28;20058;-78
2021/01/01 05:10:54;;;;;;;20.00;11.02;;;;;;;1.45;92.05;97974.19;5019688;28;20057;-79
2021/01/01 05:13:20;;;;;;;22.83;11.63;;;;;;;1.23;91.99;97949.56;5019933;28;20061;-79
2021/01/01 05:15:49;;;;;;;23.60;11.32;;;;;;;1.34;91.99;97951.16;5019263;28;20081;-79
2021/01/01 05:18:17;;;;;;;22.65;11.80;;;;;;;1.30;92.08;97964.03;5021759;28;20053;-79
2021/01/01 05:20:43;;;;;;;20.77;11.52;;;;;;;1.26;92.49;97949.25;5034232;28;20053;-79
2021/01/01 05:23:22;;;;;;;19.75;10.63;;;;;;;1.41;92.22;97985.19;5020494;28;20054;-79
2021/01/01 05:25:49;;;;;;;24.98;11.10;;;;;;;1.36;92.51;97979.47;5039423;28;20072;-79
2021/01/01 05:28:16;;;;;;;19.80;10.27;;;;;;;1.21;92.99;97964.97;5039471;28;20053;-79
2021/01/01 05:30:42;;;;;;;22.10;10.10;;;;;;;1.19;92.59;97969.63;5039113;28;20049;-79
2021/01/01 05:33:15;;;;;;;19.65;10.30;;;;;;;1.25;92.51;97971.69;5039153;28;20049;-79
2021/01/01 05:35:41;;;;;;;18.75;9.30;;;;;;;1.23;92.56;97979.91;5039152;28;20073;-79
2021/01/01 05:38:20;;;;;;;21.13;11.20;;;;;;;1.35;92.64;97985.81;5049687;28;20051;-79
2021/01/01 05:40:49;;;;;;;18.15;9.90;;;;;;;1.24;92.60;97970.00;5059489;28;20041;-79
2021/01/01 05:43:21;;;;;;;20.95;10.75;;;;;;;1.34;91.74;97994.88;5041925;28;20081;-79
2021/01/01 05:45:47;;;;;;;17.48;10.30;;;;;;;1.20;92.77;97980.16;5038607;28;20060;-79
2021/01/01 05:48:16;;;;;;;20.60;10.90;;;;;;;1.32;92.56;97996.00;5036544;28;20543;-80
2021/01/01 05:50:43;;;;;;;21.45;11.05;;;;;;;1.37;92.70;98005.28;5035799;28;20490;-78
2021/01/01 05:53:14;;;;;;;20.35;11.02;;;;;;;1.23;91.96;97989.75;5035934;28;20052;-79
2021/01/01 05:55:41;;;;;;;16.73;8.60;;;;;;;1.33;91.78;98006.56;5035634;28;20053;-79
2021/01/01 05:58:21;;;;;;;23.95;9.23;;;;;;;1.27;91.17;97999.16;5035989;28;20056;-79
2021/01/01 06:00:52;;;;;;;17.98;8.05;;;;;;;1.28;91.26;98003.53;5035281;28;20088;-79
2021/01/01 06:03:22;;;;;;;14.57;8.60;;;;;;;1.27;91.44;98007.19;5035543;28;20138;-79
2021/01/01 06:05:53;;;;;;;15.68;8.00;;;;;;;1.31;90.38;98016.59;5035817;28;20057;-79
2021/01/01 06:08:24;;;;;;;14.25;8.45;;;;;;;1.30;91.01;98019.44;5035779;28;20099;-79
2021/01/01 06:10:51;;;;;;;16.17;7.82;;;;;;;1.22;91.38;98015.69;5036233;28;20136;-79
2021/01/01 06:13:19;;;;;;;14.13;8.48;;;;;;;1.20;91.81;98012.31;5035751;28;20103;-79
2021/01/01 06:15:56;;;;;;;14.35;8.15;;;;;;;1.32;91.01;98034.31;5035447;28;20053;-79
2021/01/01 06:18:27;;;;;;;17.15;8.68;;;;;;;1.35;91.33;98047.41;5035824;28;20076;-79
2021/01/01 06:20:58;;;;;;;14.88;7.88;;;;;;;1.35;90.77;98041.22;5035362;28;20053;-80
2021/01/01 06:23:32;;;;;;;13.57;6.32;;;;;;;1.29;91.11;98045.34;5035689;28;20053;-79
2021/01/01 06:25:59;;;;;;;14.38;7.15;;;;;;;1.17;90.66;98038.56;5035175;28;20061;-79
2021/01/01 06:28:26;;;;;;;11.00;6.43;;;;;;;1.24;90.68;98056.53;5024625;28;20439;-79
2021/01/01 06:30:55;;;;;;;9.50;6.60;;;;;;;1.28;90.50;98054.41;5015439;28;20140;-79
2021/01/01 06:33:23;;;;;;;11.80;6.07;;;;;;;1.18;89.83;98042.91;5024023;28;20126;-79
2021/01/01 06:35:51;;;;;;;11.77;6.57;;;;;;;1.04;90.26;98026.38;5015272;28;20046;-79
2021/01/01 06:38:38;;;;;;;11.25;6.32;;;;;;;1.24;89.82;98055.69;5015513;28;20054;-79
2021/01/01 06:41:10;;;;;;;7.97;4.47;;;;;;;1.02;89.42;98028.38;5015455;28;20052;-79
2021/01/01 06:43:51;;;;;;;7.65;4.60;;;;;;;1.22;89.08;98074.59;5018412;28;20049;-79
2021/01/01 06:46:32;;;;;;;6.10;3.65;;;;;;;1.12;89.00;98048.88;5034407;28;20085;-79
2021/01/01 06:48:58;;;;;;;8.75;3.97;;;;;;;1.16;88.55;98058.28;5034962;28;20089;-79
2021/01/01 06:51:29;;;;;;;4.93;3.47;;;;;;;1.14;88.79;98066.47;5034601;28;20050;-79
2021/01/01 06:54:10;;;;;;;5.57;3.47;;;;;;;1.09;88.99;98079.47;5035202;28;20077;-79
2021/01/01 06:56:37;;;;;;;6.10;3.95;;;;;;;1.02;89.60;98065.84;5035155;28;20080;-79
2021/01/01 06:59:11;;;;;;;6.60;3.92;;;;;;;0.94;89.06;98065.75;5034216;28;20045;-79
2021/01/01 07:01:41;;;;;;;8.98;3.85;;;;;;;1.08;nan;98088.47;5016912;28;20057;-79
2021/01/01 07:04:08;;;;;;;6.55;3.35;;;;;;;0.90;89.42;98079.59;5032265;28;20182;-79
2021/01/01 07:06:44;;;;;;;5.13;3.30;;;;;;;0.91;88.81;98087.47;5034576;28;20046;-79
2021/01/01 07:09:14;;;;;;;7.38;3.83;;;;;;;0.86;88.88;98082.56;5034328;28;20049;-79
2021/01/01 07:11:44;;;;;;;5.90;3.80;;;;;;;0.88;89.33;98064.50;5034176;28;20049;-79
2021/01/01 07:16:57;;;;;;;6.90;3.50;;;;;;;0.83;88.62;98084.72;5055367;28;20057;-79
2021/01/01 07:19:29;;;;;;;5.97;3.70;;;;;;;0.99;88.24;98113.47;5035652;28;20129;-79
2021/01/01 07:21:57;;;;;;;5.72;3.15;;;;;;;0.73;88.00;98078.56;5033398;28;20045;-79
2021/01/01 07:24:24;;;;;;;5.05;2.97;;;;;;;0.90;87.81;98101.81;5013585;28;20061;-78
2021/01/01 07:26:51;;;;;;;7.78;3.70;;;;;;;0.91;88.74;98116.06;5033541;28;20390;-79
2021/01/01 07:29:24;;;;;;;5.85;3.40;;;;;;;0.80;88.04;98099.22;5034122;28;20053;-79
2021/01/01 07:31:52;;;;;;;6.82;3.75;;;;;;;0.72;87.08;98071.53;5017759;28;20631;-79
2021/01/01 07:34:19;;;;;;;5.65;3.60;;;;;;;0.85;88.17;98104.97;5049882;28;20509;-79
2021/01/01 07:36:46;;;;;;;7.35;4.18;;;;;;;0.88;87.86;98110.00;5028135;28;20521;-79
2021/01/01 07:39:14;;;;;;;8.50;4.45;;;;;;;1.01;88.53;98124.88;5014351;28;20045;-79
2021/01/01 07:41:40;;;;;;;7.43;4.33;;;;;;;1.06;88.13;98126.09;5017746;28;20072;-79
2021/01/01 07:44:06;;;;;;;5.70;3.42;;;;;;;0.82;87.93;98109.78;5033500;28;20103;-79
2021/01/01 07:46:33;;;;;;;5.23;3.57;;;;;;;0.99;88.25;98125.00;5033657;28;20505;-79
2021/01/01 07:48:59;;;;;;;4.45;3.10;;;;;;;0.98;87.72;98142.09;5033609;28;20489;-79
2021/01/01 07:51:26;;;;;;;7.40;4.28;;;;;;;0.92;88.43;98123.94;5033989;28;20072;-78
2021/01/01 07:53:59;;;;;;;7.77;4.37;;;;;;;1.06;88.99;98135.97;5033466;28;20099;-79
2021/01/01 07:56:26;;;;;;;8.10;4.60;;;;;;;0.96;89.45;98129.84;5032447;28;20061;-79
2021/01/01 07:58:54;;;;;;;7.30;4.07;;;;;;;0.96;88.85;98128.00;5032903;28;20057;-78
2021/01/01 08:01:22;;;;;;;10.77;4.28;;;;;;;1.02;88.60;98131.91;5033093;28;20072;-79
2021/01/01 08:03:49;;;;;;;5.70;3.97;;;;;;;1.18;88.94;98144.66;5032872;28;20088;-79
2021/01/01 08:06:18;;;;;;;7.97;4.45;;;;;;;0.99;89.74;98130.38;5032547;28;20403;-79
2021/01/01 08:08:44;;;;;;;7.20;4.10;;;;;;;0.99;90.07;98130.38;5033610;28;20053;-79
2021/01/01 08:11:10;;;;;;;7.07;4.18;;;;;;;1.05;89.62;98140.50;5032113;28;20045;-79
2021/01/01 08:13:37;;;;;;;7.05;4.03;;;;;;;1.00;89.86;98125.88;5033694;28;20053;-79
2021/01/01 08:16:11;;;;;;;5.55;4.07;;;;;;;1.03;88.83;98139.78;5033146;28;20069;-80
2021/01/01 08:18:38;;;;;;;5.57;3.47;;;;;;;1.14;88.13;98159.31;5033447;28;20072;-79
2021/01/01 08:21:05;;;;;;;6.53;3.53;;;;;;;1.14;87.29;98154.81;5033366;28;20061;-79
2021/01/01 08:23:41;;;;;;;6.43;3.88;;;;;;;1.13;87.49;98142.44;5018493;28;20501;-79
2021/01/01 08:26:08;;;;;;;6.35;3.75;;;;;;;1.10;87.80;98136.50;5025739;28;20456;-79
2021/01/01 08:28:37;;;;;;;6.07;4.10;;;;;;;1.05;86.67;98132.47;5033388;28;20053;-79
2021/01/01 08:31:05;;;;;;;8.03;4.97;;;;;;;1.27;87.32;98161.66;5032973;28;20052;-79
2021/01/01 08:33:36;;;;;;;7.13;4.15;;;;;;;1.32;88.57;98162.88;5033376;28;20510;-79
2021/01/01 08:36:04;;;;;;;7.32;4.05;;;;;;;1.43;88.56;98175.22;5033069;28;20045;-79
2021/01/01 08:38:31;;;;;;;6.15;4.13;;;;;;;1.38;86.22;98164.09;5033310;28;20445;-79
2021/01/01 08:40:58;;;;;;;7.13;4.28;;;;;;;1.41;86.89;98161.13;5033128;28;20115;-79
2021/01/01 08:43:26;;;;;;;5.35;3.58;;;;;;;1.35;86.43;98154.53;5033287;28;20045;-79
2021/01/01 08:45:53;;;;;;;8.38;3.90;;;;;;;1.44;86.14;98170.69;5032684;28;20115;-79
2021/01/01 08:48:20;;;;;;;5.65;3.88;;;;;;;1.45;86.05;98177.75;5032631;28;20053;-79
2021/01/01 08:50:47;;;;;;;5.72;3.83;;;;;;;1.20;86.90;98156.03;5032991;28;20046;-79
2021/01/01 08:53:14;;;;;;;6.85;4.20;;;;;;;1.29;86.83;98181.09;5033138;28;20049;-79
2021/01/01 08:55:57;;;;;;;7.00;4.13;;;;;;;1.44;86.54;98192.13;5047643;28;20045;-79
2021/01/01 08:58:23;;;;;;;6.30;3.65;;;;;;;1.26;86.17;98178.69;5053001;28;20045;-79
2021/01/01 09:01:35;;;;;;;5.90;3.88;;;;;;;1.46;85.47;98198.16;5052901;28;20060;-79
2021/01/01 09:04:03;;;;;;;5.82;3.80;;;;;;;1.34;85.89;98176.97;5052710;28;20080;-79
2021/01/01 09:06:30;;;;;;;6.78;4.20;;;;;;;1.26;86.14;98179.53;5035148;28;20061;-79
2021/01/01 09:09:07;;;;;;;8.02;4.72;;;;;;;1.33;85.88;98212.75;5032650;28;20053;-83
2021/01/01 09:11:34;;;;;;;7.80;4.35;;;;;;;1.35;86.38;98209.94;5031537;28;20041;-79
2021/01/01 09:14:01;;;;;;;7.43;4.25;;;;;;;1.50;86.57;98215.63;5051109;28;20041;-79
2021/01/01 09:16:28;;;;;;;7.68;4.45;;;;;;;1.61;86.81;98219.94;5047564;28;20052;-79
2021/01/01 09:18:54;;;;;;;9.73;5.32;;;;;;;1.45;85.97;98204.53;5033801;28;20399;-80
2021/01/01 09:21:21;;;;;;;7.68;4.72;;;;;;;1.40;86.37;98195.09;5032379;28;20068;-79
2021/01/01 09:23:52;;;;;;;7.22;4.03;;;;;;;1.36;85.46;98206.28;5036244;28;20494;-79
2021/01/01 09:26:22;;;;;;;8.90;4.75;;;;;;;1.37;86.04;98208.81;5052275;28;20064;-79
2021/01/01 09:28:49;;;;;;;9.50;5.35;;;;;;;1.46;85.71;98223.13;5055713;28;20080;-79
2021/01/01 09:31:19;;;;;;;7.47;4.50;;;;;;;1.39;85.41;98211.34;5038804;28;20124;-79
2021/01/01 09:34:02;;;;;;;8.70;4.90;;;;;;;1.40;85.31;98213.00;5035847;28;20049;-80
2021/01/01 09:36:32;;;;;;;10.88;5.00;;;;;;;1.44;85.36;98210.88;5035962;28;20049;-79
2021/01/01 09:38:59;;;;;;;8.45;4.15;;;;;;;1.41;84.93;98209.34;5035887;28;20057;-79
2021/01/01 09:41:26;;;;;;;6.53;4.28;;;;;;;1.35;85.41;98204.56;5035832;28;20095;-79
2021/01/01 09:43:52;;;;;;;7.95;4.55;;;;;;;1.35;84.22;98205.41;5036518;28;20115;-79
2021/01/01 09:46:18;;;;;;;9.38;4.57;;;;;;;1.39;84.60;98212.16;5054873;28;20052;-79
2021/01/01 09:48:45;;;;;;;7.75;4.78;;;;;;;1.60;84.47;98243.22;5035259;28;20053;-80
2021/01/01 09:51:31;;;;;;;6.78;4.25;;;;;;;1.62;83.98;98233.16;5035244;28;20057;-80
2021/01/01 09:54:01;;;;;;;7.57;5.03;;;;;;;1.51;83.77;98220.84;5035062;28;20494;-80
2021/01/01 09:56:33;;;;;;;9.73;5.13;;;;;;;1.55;84.36;98234.75;5044346;28;20405;-80
2021/01/01 09:59:00;;;;;;;7.70;4.82;;;;;;;1.56;84.44;98229.25;5043243;28;20057;-80
2021/01/01 10:01:29;;;;;;;9.00;5.03;;;;;;;1.55;84.84;98232.94;5034705;28;20049;-80
2021/01/01 10:03:55;;;;;;;7.72;4.57;;;;;;;1.64;83.42;98230.34;5034907;28;20049;-80
2021/01/01 10:06:21;;;;;;;7.07;4.25;;;;;;;1.50;83.91;98224.50;5034531;28;20449;-80
2021/01/01 10:08:49;;;;;;;12.13;5.93;;;;;;;1.57;83.17;98236.31;5051104;28;20424;-80
2021/01/01 10:11:16;;;;;;;8.75;5.63;;;;;;;1.66;84.57;98229.19;5034934;28;20045;-80
2021/01/01 10:13:43;;;;;;;9.63;5.35;;;;;;;1.67;83.89;98220.19;5037011;28;20103;-80
2021/01/01 10:16:10;;;;;;;10.45;5.35;;;;;;;1.77;84.34;98234.34;5035061;28;20061;-80
2021/01/01 10:18:37;;;;;;;8.52;5.30;;;;;;;1.75;84.05;98227.47;5034903;28;20053;-80
2021/01/01 10:21:04;;;;;;;9.55;5.55;;;;;;;1.73;84.24;98237.47;5034466;28;20489;-80
2021/01/01 10:23:30;;;;;;;10.40;6.20;;;;;;;1.79;83.85;98242.22;5035258;28;20098;-80
2021/01/01 10:25:57;;;;;;;10.75;5.60;;;;;;;1.61;83.82;98212.72;5035396;28;20049;-80
2021/01/01 10:28:24;;;;;;;10.23;5.65;;;;;;;1.84;84.17;98249.84;5034638;28;20050;-80
2021/01/01 10:30:50;;;;;;;9.27;5.18;;;;;;;1.68;83.34;98223.69;5034254;28;20509;-80
2021/01/01 10:33:17;;;;;;;10.13;6.65;;;;;;;1.90;83.38;98242.00;5033617;28;20057;-80
2021/01/01 10:35:43;;;;;;;11.15;6.57;;;;;;;1.87;83.51;98236.97;5034443;28;20053;-80
2021/01/01 10:38:12;;;;;;;10.07;5.22;;;;;;;1.79;83.09;98231.50;5034929;28;20115;-80
2021/01/01 10:40:39;;;;;;;12.50;5.72;;;;;;;1.84;83.13;98241.78;5034907;28;20057;-80
2021/01/01 10:43:06;;;;;;;11.65;5.85;;;;;;;1.86;82.72;98235.25;5034606;28;20398;-80
2021/01/01 10:45:32;;;;;;;8.60;5.63;;;;;;;1.98;83.16;98241.25;5037656;28;20049;-80
2021/01/01 10:47:59;;;;;;;9.90;5.53;;;;;;;2.23;83.04;98241.47;5053959;28;20064;-81
2021/01/01 10:50:26;;;;;;;11.05;6.15;;;;;;;2.20;82.72;98236.41;5050816;28;20046;-81
2021/01/01 10:52:52;;;;;;;10.55;5.97;;;;;;;2.04;82.39;98229.06;5014538;28;20482;-80
2021/01/01 10:55:19;;;;;;;10.70;6.00;;;;;;;2.06;82.09;98225.25;5014435;28;20053;-80
2021/01/01 10:57:45;;;;;;;11.65;6.15;;;;;;;2.18;82.84;98231.19;5014592;28;20068;-81
2021/01/01 11:00:17;;;;;;;11.63;6.80;;;;;;;1.98;80.95;98202.88;5014503;28;20073;-80
2021/01/01 11:02:43;;;;;;;11.50;5.78;;;;;;;2.08;82.45;98209.00;5020544;28;20406;-80
2021/01/01 11:05:12;;;;;;;13.55;6.13;;;;;;;2.12;80.96;98221.94;5033528;28;20053;-80
2021/01/01 11:07:42;;;;;;;11.77;6.32;;;;;;;2.22;82.24;98219.16;5033884;28;20057;-81
2021/01/01 11:10:09;;;;;;;16.20;8.48;;;;;;;2.34;81.95;98227.81;5034309;28;20057;-81
2021/01/01 11:12:36;;;;;;;17.33;7.57;;;;;;;2.45;80.91;98216.84;5031274;28;20042;-81
2021/01/01 12:21:47;;;;;;;14.32;7.68;;;;;;;3.07;79.15;98197.09;5031996;28;20052;-81
2021/01/01 12:26:55;;;;;;;12.00;6.57;;;;;;;2.95;79.80;98174.19;5022827;28;20045;-81
2021/01/01 12:29:25;;;;;;;16.08;8.80;;;;;;;3.05;78.39;98196.38;5031682;28;20164;-81
2021/01/01 12:31:52;;;;;;;;;;;;;;;3.00;78.10;98193.34;5031752;28;20041;-81
2021/01/01 12:34:18;;;;;;;11.63;6.70;;;;;;;2.97;78.09;98197.19;5032041;28;19928;-81
2021/01/01 12:36:44;;;;;;;13.40;8.07;;;;;;;3.05;78.98;98204.44;5033038;28;20068;-81
2021/01/01 12:39:10;;;;;;;12.23;6.50;;;;;;;3.03;78.26;98200.22;5033141;28;20160;-82
2021/01/01 12:41:38;;;;;;;10.48;6.15;;;;;;;2.94;78.02;98180.56;5032662;28;20049;-81
2021/01/01 12:44:04;;;;;;;9.77;5.53;;;;;;;2.99;77.87;98191.66;5031666;28;20099;-81
2021/01/01 12:46:31;;;;;;;12.10;6.82;;;;;;;3.03;77.94;98190.34;5030666;28;20046;-81
2021/01/01 12:48:57;;;;;;;10.82;6.32;;;;;;;3.01;76.69;98179.78;5031409;28;20505;-81